Terminal Aerodrome Forecast
Issued by NWS Wilmington, OH

Current Version | Previous Version | Graphics & Text | Print | Product List | Glossary On
Versions: 1 2 3 4 5 6 7 8 9 10 11 12 13 14 15 16
000
FTUS41 KILN 201100
TAFDAY
TAF
KDAY 201134Z 2012/2112 10005KT P6SM SCT250
     FM201500 14007KT P6SM SCT250
     FM201800 19007KT P6SM FEW050 BKN250
     FM210000 17004KT P6SM SCT050 BKN200=

USA.gov is the U.S. government's official web portal to all federal, state and local government web resources and services.